Time;durP1;ratioP1;P1;durP2;ratioP2;P2;SDS_P1;SDS_P2;PMS_P1;PMS_P2;Temp;Humidity;BMP_temperature;BMP_pressure;BME280_temperature;BME280_humidity;BME280_pressure;Samples;Min_cycle;Max_cycle;Signal;HPM_P1;HPM_P2
2022/06/20 00:00:38;;;;;;;10.60;7.10;;;;;;;26.83;46.59;97944.81;6954444;28;20246;-80
2022/06/20 00:03:59;;;;;;;10.90;7.30;;;;;;;26.38;47.60;97940.81;6961152;28;20689;-79
2022/06/20 00:07:21;;;;;;;9.23;7.70;;;;;;;26.47;48.02;97942.41;6956775;28;20207;-79
2022/06/20 00:10:45;;;;;;;9.37;7.33;;;;;;;26.86;46.39;97939.44;6955630;28;20301;-80
2022/06/20 00:14:07;;;;;;;12.00;8.20;;;;;;;26.60;47.24;97971.06;6956088;28;20199;-80
2022/06/20 00:17:30;;;;;;;10.30;7.40;;;;;;;26.94;46.57;97973.72;6955745;28;20325;-80
2022/06/20 00:20:51;;;;;;;13.57;7.73;;;;;;;26.94;46.71;97968.19;6955531;28;20233;-79
2022/06/20 00:24:13;;;;;;;8.73;7.50;;;;;;;26.87;46.33;97962.34;6955843;28;20209;-79
2022/06/20 00:27:35;;;;;;;10.00;7.27;;;;;;;26.82;46.99;97979.94;6955134;28;20248;-80
2022/06/20 00:30:56;;;;;;;10.10;7.60;;;;;;;26.70;47.05;97966.00;6955145;28;20254;-80
2022/06/20 00:34:19;;;;;;;14.07;7.83;;;;;;;26.37;47.84;97959.34;6955740;28;20234;-80
2022/06/20 00:37:41;;;;;;;10.83;8.20;;;;;;;26.26;47.92;97932.38;6954658;28;20228;-79
2022/06/20 00:41:07;;;;;;;10.53;7.63;;;;;;;26.67;47.36;97963.06;6955294;28;20720;-81
2022/06/20 00:44:33;;;;;;;10.40;7.60;;;;;;;26.60;47.58;97969.09;6954904;28;20746;-80
2022/06/20 00:48:01;;;;;;;12.70;8.57;;;;;;;26.22;48.49;97947.97;6954746;28;20193;-78
2022/06/20 00:51:27;;;;;;;10.50;7.37;;;;;;;26.49;47.92;97955.94;6956115;28;20295;-79
2022/06/20 00:54:53;;;;;;;9.90;7.70;;;;;;;26.40;48.50;97958.69;6977139;28;20202;-79
2022/06/20 00:58:24;;;;;;;9.23;7.67;;;;;;;26.13;49.16;97956.28;7000972;28;20238;-79
2022/06/20 01:01:45;;;;;;;10.10;8.00;;;;;;;26.23;48.51;97964.25;6987334;28;20226;-80
2022/06/20 01:05:11;;;;;;;13.43;8.33;;;;;;;25.85;49.57;97946.69;6985839;28;20229;-79
2022/06/20 01:08:38;;;;;;;15.17;8.73;;;;;;;25.43;51.10;97994.31;6984843;28;20331;-79
2022/06/20 01:12:02;;;;;;;15.77;8.43;;;;;;;26.06;49.71;97986.34;6979881;28;20290;-79
2022/06/20 01:15:26;;;;;;;8.83;7.97;;;;;;;26.22;49.24;98012.38;6979589;28;20213;-79
2022/06/20 01:18:49;;;;;;;9.20;7.80;;;;;;;26.14;49.83;98002.09;6954718;28;20241;-79
2022/06/20 01:22:19;;;;;;;11.07;8.00;;;;;;;25.97;50.29;98007.66;6952513;28;20250;-79
2022/06/20 01:26:02;;;;;;;15.17;8.27;;;;;;;26.60;48.45;98029.94;6952228;28;20282;-80
2022/06/20 01:29:25;;;;;;;12.40;9.03;;;;;;;26.00;50.06;98009.75;6948537;28;20699;-79
2022/06/20 01:32:47;;;;;;;17.07;9.97;;;;;;;26.17;51.39;97990.41;6951428;28;20308;-79
2022/06/20 01:39:51;;;;;;;14.57;8.33;;;;;;;26.17;53.74;97943.44;6949993;28;20188;-78
2022/06/20 01:43:11;;;;;;;13.37;9.23;;;;;;;25.51;54.79;97893.34;6952825;28;20647;-79
2022/06/20 01:46:35;;;;;;;10.80;9.67;;;;;;;25.67;55.13;97958.81;6953218;28;20781;-80
2022/06/20 01:50:00;;;;;;;14.87;9.07;;;;;;;25.83;55.16;97943.41;6952883;28;20288;-79
2022/06/20 01:53:26;;;;;;;13.17;9.87;;;;;;;25.84;55.29;97947.00;6953655;28;20230;-79
2022/06/20 01:56:48;;;;;;;14.37;9.33;;;;;;;25.65;55.90;97966.59;6954104;28;20690;-79
2022/06/20 02:00:13;;;;;;;14.03;9.87;;;;;;;25.52;56.13;97978.59;6953539;28;20291;-79
2022/06/20 02:03:37;;;;;;;12.13;9.37;;;;;;;25.79;56.27;97981.06;6954078;28;20710;-79
2022/06/20 02:07:00;;;;;;;12.33;10.17;;;;;;;26.02;57.82;97984.56;6954768;28;20205;-79
2022/06/20 02:10:25;;;;;;;12.10;10.73;;;;;;;25.85;57.81;97977.06;6953671;28;20301;-79
2022/06/20 02:13:50;;;;;;;12.87;10.33;;;;;;;25.38;57.42;97953.09;6966402;28;20227;-79
2022/06/20 02:17:13;;;;;;;16.13;11.27;;;;;;;25.45;57.17;97978.28;6972951;28;20225;-79
2022/06/20 02:20:45;;;;;;;13.40;10.30;;;;;;;25.23;56.47;97960.94;6963223;28;20212;-79
2022/06/20 02:24:09;;;;;;;14.13;10.10;;;;;;;25.35;57.02;97973.03;6992169;28;20180;-79
2022/06/20 02:27:33;;;;;;;12.10;10.80;;;;;;;25.43;58.19;97936.34;6999973;28;20214;-79
2022/06/20 02:30:55;;;;;;;12.90;10.17;;;;;;;25.73;58.08;97974.09;7000143;28;20230;-80
2022/06/20 02:34:16;;;;;;;12.30;10.03;;;;;;;25.50;57.24;97931.19;6987138;28;20258;-79
2022/06/20 02:37:39;;;;;;;11.33;8.80;;;;;;;26.09;55.80;97947.03;6989661;28;20277;-81
2022/06/20 02:41:01;;;;;;;12.70;9.73;;;;;;;25.86;56.28;97953.00;6985137;28;20230;-79
2022/06/20 02:44:24;;;;;;;14.73;9.30;;;;;;;25.99;55.38;97958.41;6974967;28;20218;-79
2022/06/20 02:47:47;;;;;;;15.93;9.97;;;;;;;25.37;56.49;97940.41;6969241;28;20293;-79
2022/06/20 02:51:13;;;;;;;17.40;10.60;;;;;;;24.97;59.13;97995.91;6974815;28;20390;-79
2022/06/20 02:54:37;;;;;;;17.87;11.70;;;;;;;25.38;59.49;97997.25;6973514;28;20734;-78
2022/06/20 02:58:01;;;;;;;14.93;10.67;;;;;;;25.88;57.46;98004.00;6973927;28;20231;-78
2022/06/20 03:01:26;;;;;;;15.80;11.47;;;;;;;25.60;58.43;98012.91;6974405;28;20234;-78
2022/06/20 03:04:48;;;;;;;17.30;13.00;;;;;;;24.69;61.58;98039.38;6974550;28;20263;-77
2022/06/20 03:08:11;;;;;;;24.33;12.93;;;;;;;24.28;62.72;98038.72;6975400;28;20207;-78
2022/06/20 03:11:37;;;;;;;21.00;12.33;;;;;;;23.97;65.76;98006.66;6975345;28;20298;-78
2022/06/20 03:15:00;;;;;;;13.77;9.63;;;;;;;24.66;63.36;98004.16;6976013;28;20529;-78
2022/06/20 03:18:22;;;;;;;16.77;11.50;;;;;;;25.22;61.50;98008.97;6974232;28;20230;-78
2022/06/20 03:21:44;;;;;;;14.47;10.10;;;;;;;25.80;59.03;98010.34;6975039;28;20289;-79
2022/06/20 03:25:08;;;;;;;16.00;9.30;;;;;;;25.75;58.97;97987.56;6976752;28;20230;-78
2022/06/20 03:28:32;;;;;;;16.60;10.00;;;;;;;25.94;59.35;98018.50;6975884;28;20210;-78
2022/06/20 03:31:54;;;;;;;19.03;10.73;;;;;;;25.67;60.59;98018.75;6975215;28;20245;-77
2022/06/20 03:35:16;;;;;;;13.83;10.77;;;;;;;25.37;61.00;98020.44;6975072;28;20249;-78
2022/06/20 03:38:38;;;;;;;16.83;10.17;;;;;;;25.93;60.26;98028.75;6973965;28;20316;-79
2022/06/20 03:42:00;;;;;;;17.10;10.60;;;;;;;25.94;59.42;98035.91;6976031;28;20246;-77
2022/06/20 03:45:27;;;;;;;17.67;12.30;;;;;;;25.56;62.53;98045.88;6975941;28;20680;-78
2022/06/20 03:48:52;;;;;;;22.13;11.87;;;;;;;25.69;61.86;98068.94;6975064;28;20187;-78
2022/06/20 03:52:17;;;;;;;15.33;11.97;;;;;;;25.69;62.25;98071.72;6975993;28;20237;-78
2022/06/20 03:55:42;;;;;;;15.23;12.07;;;;;;;25.60;63.07;98117.81;6976323;28;20207;-77
2022/06/20 03:59:12;;;;;;;19.77;13.63;;;;;;;25.09;65.03;98136.81;6975007;28;20270;-78
2022/06/20 04:02:39;;;;;;;19.03;13.10;;;;;;;25.28;64.62;98143.78;6974485;28;20321;-77
2022/06/20 04:06:03;;;;;;;19.03;11.67;;;;;;;24.47;65.81;98122.03;6974556;28;20275;-77
2022/06/20 04:13:11;;;;;;;16.03;12.63;;;;;;;25.79;62.76;98112.84;6973941;28;20222;-77
2022/06/20 04:16:35;;;;;;;16.73;11.83;;;;;;;26.17;61.95;98123.06;6973985;28;20203;-77
2022/06/20 04:20:00;;;;;;;18.43;12.87;;;;;;;25.98;62.22;98136.34;6974043;28;20249;-78
2022/06/20 04:23:26;;;;;;;17.93;13.47;;;;;;;25.95;63.43;98156.31;6958983;28;20305;-77
2022/06/20 04:26:53;;;;;;;18.53;12.53;;;;;;;25.58;63.45;98172.53;6974780;28;20226;-78
2022/06/20 04:30:21;;;;;;;18.90;13.40;;;;;;;25.73;63.38;98159.13;6973813;28;20197;-77
2022/06/20 04:33:47;;;;;;;19.43;13.43;;;;;;;25.87;62.36;98161.78;6974638;28;20645;-78
2022/06/20 04:37:15;;;;;;;16.27;13.17;;;;;;;25.84;62.16;98163.22;6973038;28;20202;-77
2022/06/20 04:40:39;;;;;;;21.00;13.23;;;;;;;25.75;62.34;98195.53;6945851;28;20204;-77
2022/06/20 04:44:04;;;;;;;17.33;12.93;;;;;;;25.79;62.93;98201.22;6946474;28;20266;-78
2022/06/20 04:47:35;;;;;;;19.43;12.90;;;;;;;26.25;61.80;98210.72;6952530;28;20193;-77
2022/06/20 04:51:00;;;;;;;17.90;11.93;;;;;;;26.30;60.85;98224.38;6978871;28;20248;-77
2022/06/20 04:54:23;;;;;;;17.00;12.60;;;;;;;26.01;61.81;98187.41;6978958;28;20336;-77
2022/06/20 04:57:44;;;;;;;24.77;14.40;;;;;;;24.92;66.58;98180.81;6978097;28;20230;-77
2022/06/20 05:01:08;;;;;;;22.43;14.73;;;;;;;25.79;63.31;98195.72;6978997;28;20226;-78
2022/06/20 05:04:32;;;;;;;22.13;15.07;;;;;;;25.51;63.99;98167.47;6979333;28;20238;-78
2022/06/20 05:07:54;;;;;;;22.07;15.07;;;;;;;25.58;64.29;98155.97;6978694;28;20214;-79
2022/06/20 05:11:23;;;;;;;21.43;14.83;;;;;;;26.13;62.68;98124.84;6979432;28;20234;-78
2022/06/20 05:14:52;;;;;;;17.90;12.33;;;;;;;26.42;60.89;98096.63;6970315;28;20287;-78
2022/06/20 05:18:21;;;;;;;17.73;13.37;;;;;;;26.28;61.66;98138.22;6977727;28;20309;-78
2022/06/20 05:21:45;;;;;;;18.57;15.17;;;;;;;25.77;63.67;98162.06;6979723;28;20245;-78
2022/06/20 05:25:09;;;;;;;22.93;15.20;;;;;;;26.06;62.85;98168.72;6979500;28;20288;-78
2022/06/20 05:28:33;;;;;;;21.07;15.60;;;;;;;26.00;63.06;98194.03;6978437;28;20205;-79
2022/06/20 05:31:55;;;;;;;21.27;15.87;;;;;;;26.07;63.71;98197.16;6979478;28;20251;-78
2022/06/20 05:35:20;;;;;;;21.20;15.97;;;;;;;26.23;62.67;98204.69;6978982;28;20281;-78
2022/06/20 05:38:45;;;;;;;20.20;14.00;;;;;;;25.70;62.58;98187.38;6977149;28;20230;-78
2022/06/20 05:42:11;;;;;;;22.20;15.77;;;;;;;24.89;65.83;98184.22;6978875;28;20699;-78
2022/06/20 05:45:34;;;;;;;20.23;15.33;;;;;;;25.53;64.40;98192.81;6951976;28;20366;-78
2022/06/20 05:49:03;;;;;;;20.93;14.37;;;;;;;25.71;62.88;98210.31;6966402;28;20651;-78
2022/06/20 05:52:27;;;;;;;18.80;13.13;;;;;;;26.02;61.95;98220.22;6979029;28;20254;-78
2022/06/20 05:55:49;;;;;;;17.97;13.57;;;;;;;26.52;60.65;98204.09;6979540;28;20219;-80
2022/06/20 05:59:32;;;;;;;20.93;13.60;;;;;;;26.70;60.10;98231.50;6972066;28;20254;-79
2022/06/20 06:02:59;;;;;;;19.20;12.10;;;;;;;26.02;60.54;98238.75;6978289;28;20725;-78
2022/06/20 06:06:23;;;;;;;18.47;13.07;;;;;;;25.61;61.95;98205.84;6978650;28;20190;-79
2022/06/20 06:09:49;;;;;;;18.27;11.70;;;;;;;25.06;61.86;98223.78;6977372;28;20207;-79
2022/06/20 06:13:18;;;;;;;17.43;10.80;;;;;;;25.49;60.84;98207.56;6950421;28;20268;-78
2022/06/20 06:16:48;;;;;;;16.60;10.57;;;;;;;25.42;61.64;98196.97;6973382;28;20210;-79
2022/06/20 06:20:14;;;;;;;18.20;10.93;;;;;;;25.86;59.87;98210.69;6978077;28;20692;-79
2022/06/20 06:23:36;;;;;;;16.63;11.17;;;;;;;26.48;58.60;98228.03;6979010;28;20623;-79
2022/06/20 06:27:00;;;;;;;12.47;9.67;;;;;;;26.55;57.52;98226.44;6980655;28;20242;-80
2022/06/20 06:30:24;;;;;;;17.57;11.73;;;;;;;26.39;58.36;98222.47;6980521;28;20342;-80
2022/06/20 06:33:49;;;;;;;15.83;10.83;;;;;;;26.10;59.06;98213.09;6979153;28;20286;-79
2022/06/20 06:37:15;;;;;;;16.30;10.97;;;;;;;25.72;60.61;98207.19;6976816;28;20285;-79
2022/06/20 06:40:40;;;;;;;19.53;10.67;;;;;;;25.74;60.11;98176.50;6979018;28;20242;-79
2022/06/20 06:44:06;;;;;;;17.07;11.13;;;;;;;25.97;59.27;98214.84;6978477;28;20685;-80
2022/06/20 06:47:34;;;;;;;19.20;10.93;;;;;;;26.51;59.85;98214.38;6976756;28;20197;-79
2022/06/20 06:50:58;;;;;;;14.83;10.20;;;;;;;27.52;57.83;98234.97;6976285;28;20225;-79
2022/06/20 06:54:24;;;;;;;16.30;9.60;;;;;;;27.77;55.36;98231.34;6978197;28;20207;-79
2022/06/20 06:57:49;;;;;;;15.90;10.63;;;;;;;27.79;55.33;98226.28;6978267;28;20218;-79
2022/06/20 07:01:12;;;;;;;16.00;9.60;;;;;;;27.25;55.16;98243.63;6979450;28;20238;-80
2022/06/20 07:04:38;;;;;;;12.87;8.60;;;;;;;26.63;55.16;98228.41;6978372;28;20206;-79
2022/06/20 07:08:05;;;;;;;12.77;9.60;;;;;;;26.38;56.84;98247.66;6977481;28;20276;-79
2022/06/20 07:11:29;;;;;;;21.83;10.40;;;;;;;27.27;55.22;98240.53;6979191;28;20234;-79
2022/06/20 07:14:57;;;;;;;16.57;11.13;;;;;;;27.32;56.15;98240.38;6964184;28;20210;-79
2022/06/20 07:18:28;;;;;;;16.00;10.13;;;;;;;27.04;55.20;98250.09;6956894;28;20213;-80
2022/06/20 07:21:50;;;;;;;18.70;10.33;;;;;;;26.92;55.53;98234.16;6980216;28;20319;-80
2022/06/20 07:25:17;;;;;;;17.30;11.17;;;;;;;27.44;55.26;98230.28;6979507;28;20257;-79
2022/06/20 07:28:45;;;;;;;14.53;10.73;;;;;;;27.28;54.86;98251.28;6980704;28;20244;-80
2022/06/20 07:32:10;;;;;;;19.40;10.00;;;;;;;27.55;55.03;98252.91;6981683;28;20305;-80
2022/06/20 07:35:36;;;;;;;14.43;9.47;;;;;;;27.72;53.33;98244.56;6996259;28;20204;-80
2022/06/20 07:39:01;;;;;;;19.67;10.77;;;;;;;28.22;52.78;98220.59;6998354;28;20232;-79
2022/06/20 07:42:26;;;;;;;15.60;10.43;;;;;;;28.55;50.62;98241.03;6981520;28;20219;-80
2022/06/20 07:45:51;;;;;;;9.47;8.17;;;;;;;29.75;48.29;98248.13;6996358;28;20214;-80
2022/06/20 07:49:17;;;;;;;14.27;8.37;;;;;;;29.52;47.81;98244.06;7001532;28;20181;-80
2022/06/20 07:52:42;;;;;;;14.33;8.87;;;;;;;28.66;49.87;98218.09;6993021;28;20265;-80
2022/06/20 07:56:08;;;;;;;13.67;8.73;;;;;;;29.26;47.88;98243.47;6974911;28;20208;-80
2022/06/20 07:59:32;;;;;;;13.93;8.77;;;;;;;29.77;47.70;98250.56;6969852;28;20295;-79
2022/06/20 08:02:58;;;;;;;15.80;8.53;;;;;;;29.19;47.39;98242.41;6974807;28;20714;-80
2022/06/20 08:06:23;;;;;;;13.43;7.10;;;;;;;30.40;47.25;98264.75;6974805;28;20365;-80
2022/06/20 08:09:49;;;;;;;12.77;7.80;;;;;;;30.69;44.00;98253.41;6946387;28;20217;-80
2022/06/20 08:13:14;;;;;;;14.40;8.07;;;;;;;30.81;44.37;98269.28;6969678;28;20854;-79
2022/06/20 08:16:36;;;;;;;12.37;7.13;;;;;;;31.10;42.45;98269.81;6972518;28;20562;-80
2022/06/20 08:19:59;;;;;;;14.37;6.93;;;;;;;31.32;41.87;98282.47;6976400;28;20709;-80
2022/06/20 08:23:24;;;;;;;16.33;7.53;;;;;;;31.45;42.38;98289.63;6980646;28;20228;-80
2022/06/20 08:26:49;;;;;;;12.63;7.00;;;;;;;31.83;41.32;98278.81;6980960;28;20659;-80
2022/06/20 08:30:14;;;;;;;11.87;6.47;;;;;;;31.68;41.33;98291.53;6979900;28;20700;-80
2022/06/20 08:33:41;;;;;;;10.03;6.50;;;;;;;31.91;41.02;98278.63;6980278;28;20237;-80
2022/06/20 08:37:09;;;;;;;10.90;6.00;;;;;;;32.61;38.75;98279.75;6981267;28;20217;-80
2022/06/20 08:40:49;;;;;;;8.60;5.63;;;;;;;31.61;40.39;98288.50;6969115;28;20266;-80
2022/06/20 08:44:58;;;;;;;12.63;6.13;;;;;;;31.49;41.21;98294.13;6955414;28;20214;-79
2022/06/20 08:48:58;;;;;;;14.97;6.60;;;;;;;31.54;38.01;98305.03;6933581;28;20664;-80
2022/06/20 08:52:57;;;;;;;11.10;5.77;;;;;;;31.88;39.42;98293.31;6939403;28;20757;-81
2022/06/20 08:56:27;;;;;;;9.67;5.47;;;;;;;32.53;37.75;98295.50;6965033;28;20249;-80
2022/06/20 09:00:05;;;;;;;12.97;5.57;;;;;;;33.01;36.65;98292.31;6969156;28;20226;-81
2022/06/20 09:03:51;;;;;;;11.20;6.20;;;;;;;32.43;36.31;98272.91;6979711;28;20218;-80
2022/06/20 09:07:30;;;;;;;7.67;4.90;;;;;;;33.23;34.86;98282.44;6969437;28;20202;-80
2022/06/20 09:11:03;;;;;;;12.10;5.17;;;;;;;32.95;35.55;98271.44;6982036;28;20272;-81
2022/06/20 09:14:38;;;;;;;10.70;5.40;;;;;;;33.12;34.34;98253.44;6983526;28;20187;-80
2022/06/20 09:18:03;;;;;;;8.10;5.13;;;;;;;33.85;32.94;98288.63;6971662;28;20226;-79
2022/06/20 09:21:30;;;;;;;11.07;5.30;;;;;;;33.90;33.37;98293.16;6955405;28;20719;-79
2022/06/20 09:25:03;;;;;;;10.00;5.40;;;;;;;33.97;32.76;98284.88;6958867;28;20230;-79
2022/06/20 09:28:40;;;;;;;8.00;5.43;;;;;;;34.14;33.63;98268.41;6960817;28;20583;-79
2022/06/20 09:32:50;;;;;;;12.47;5.00;;;;;;;34.78;32.77;98278.81;6964377;28;20727;-79
2022/06/20 09:36:40;;;;;;;6.70;4.77;;;;;;;34.07;32.15;98282.28;6974988;28;20809;-79
2022/06/20 09:40:10;;;;;;;9.33;4.80;;;;;;;34.44;32.44;98286.19;6981079;28;20223;-81
2022/06/20 09:43:40;;;;;;;10.77;5.30;;;;;;;34.55;32.33;98295.59;6955797;28;20254;-78
2022/06/20 09:47:07;;;;;;;7.60;5.03;;;;;;;34.45;33.06;98261.81;6980896;28;20217;-78
2022/06/20 09:50:37;;;;;;;10.83;5.10;;;;;;;34.51;32.01;98258.34;6986935;28;20282;-78
2022/06/20 09:54:06;;;;;;;13.17;6.40;;;;;;;34.06;32.53;98282.63;6983795;28;20195;-78
2022/06/20 09:57:37;;;;;;;15.93;9.23;;;;;;;33.71;33.88;98279.94;6979347;28;20195;-79
2022/06/20 10:01:09;;;;;;;11.03;5.87;;;;;;;34.13;33.09;98288.41;6980855;28;20238;-79
2022/06/20 10:04:50;;;;;;;10.37;5.20;;;;;;;34.85;32.14;98282.50;6961051;28;20239;-80
2022/06/20 10:08:21;;;;;;;7.73;5.30;;;;;;;35.28;31.38;98268.00;6915805;28;20208;-78
2022/06/20 10:11:46;;;;;;;8.77;5.00;;;;;;;34.69;31.79;98253.84;6915486;28;20258;-79
2022/06/20 10:15:13;;;;;;;8.37;5.00;;;;;;;35.30;30.97;98264.78;6901894;28;20196;-77
2022/06/20 10:18:44;;;;;;;7.13;4.60;;;;;;;35.15;30.58;98240.53;6925429;28;20239;-79
2022/06/20 10:22:11;;;;;;;9.50;5.30;;;;;;;35.31;31.29;98263.63;6922712;28;20231;-81
2022/06/20 10:25:38;;;;;;;7.87;4.83;;;;;;;34.60;31.04;98252.47;6899705;28;20202;-79
2022/06/20 10:29:04;;;;;;;8.57;4.93;;;;;;;33.68;33.79;98244.34;6919855;28;20251;-79
2022/06/20 10:32:35;;;;;;;12.63;5.33;;;;;;;34.14;31.68;98240.44;6920856;28;20236;-79
2022/06/20 10:36:09;;;;;;;6.97;4.83;;;;;;;34.53;31.56;98255.97;6919829;28;20275;-78
2022/06/20 10:39:38;;;;;;;15.23;5.13;;;;;;;34.64;32.33;98248.53;6918709;28;20307;-81
2022/06/20 10:43:06;;;;;;;7.53;4.87;;;;;;;35.28;30.93;98270.81;6919120;28;20239;-77
2022/06/20 10:46:34;;;;;;;9.47;5.73;;;;;;;35.64;30.12;98272.88;6949072;28;20218;-79
2022/06/20 10:50:03;;;;;;;7.33;4.90;;;;;;;35.60;30.59;98274.81;6954285;28;20197;-84
2022/06/20 10:53:31;;;;;;;11.10;6.23;;;;;;;34.83;30.62;98290.50;6977027;28;20218;-79
2022/06/20 10:57:00;;;;;;;12.40;5.80;;;;;;;34.39;31.31;98280.09;6977223;28;20530;-79
2022/06/20 11:00:25;;;;;;;7.67;5.13;;;;;;;34.04;31.66;98273.81;6951672;28;20258;-80
2022/06/20 11:04:13;;;;;;;7.97;5.37;;;;;;;33.64;31.98;98281.75;6976838;28;20207;-79
2022/06/20 11:07:39;;;;;;;7.97;4.87;;;;;;;33.79;32.27;98283.72;6976453;28;20198;-79
2022/06/20 11:11:10;;;;;;;8.40;5.17;;;;;;;32.09;34.47;98288.34;6978944;28;20226;-79
2022/06/20 11:14:40;;;;;;;8.57;5.20;;;;;;;32.28;34.02;98282.06;6975591;28;20314;-79
2022/06/20 11:18:12;;;;;;;10.30;4.53;;;;;;;32.40;34.22;98274.44;6966867;28;20190;-79
2022/06/20 11:21:41;;;;;;;8.87;4.77;;;;;;;32.96;34.05;98278.63;6977403;28;20320;-79
2022/06/20 11:25:11;;;;;;;12.10;4.40;;;;;;;31.94;34.70;98279.91;6977343;28;20201;-79
2022/06/20 11:29:00;;;;;;;7.87;4.90;;;;;;;31.91;36.02;98289.00;6976245;28;20197;-79
2022/06/20 11:32:26;;;;;;;11.37;4.57;;;;;;;31.83;35.89;98295.56;6953547;28;20252;-80
2022/06/20 11:35:53;;;;;;;10.10;5.30;;;;;;;31.53;36.08;98316.53;6957249;28;20564;-78
2022/06/20 11:39:24;;;;;;;8.87;4.90;;;;;;;31.73;35.85;98318.34;6951148;28;20207;-81
2022/06/20 11:43:00;;;;;;;8.63;4.57;;;;;;;32.24;35.07;98322.97;6952869;28;20313;-79
2022/06/20 11:46:32;;;;;;;11.43;5.13;;;;;;;31.31;36.66;98319.84;6976678;28;20232;-78
2022/06/20 11:50:33;;;;;;;13.57;4.57;;;;;;;32.51;34.65;98338.91;6975628;28;20201;-78
2022/06/20 11:54:04;;;;;;;9.53;4.50;;;;;;;31.80;34.88;98346.44;6950933;28;20213;-77
2022/06/20 11:57:30;;;;;;;8.17;4.43;;;;;;;31.37;36.20;98344.31;6968403;28;20211;-77
2022/06/20 12:00:55;;;;;;;6.30;4.27;;;;;;;31.75;34.61;98338.31;6975429;28;20374;-78
2022/06/20 12:04:23;;;;;;;5.83;4.17;;;;;;;31.60;34.67;98323.13;6960307;28;20539;-78
2022/06/20 12:07:53;;;;;;;7.13;4.00;;;;;;;32.49;33.99;98363.56;6969398;28;20651;-78
2022/06/20 12:11:32;;;;;;;9.97;3.97;;;;;;;31.72;34.54;98370.50;6946109;28;20226;-78
2022/06/20 12:15:07;;;;;;;6.83;4.00;;;;;;;31.17;36.34;98381.47;6970178;28;20205;-78
2022/06/20 12:23:18;;;;;;;7.23;4.43;;;;;;;31.59;34.88;98363.31;6974776;28;20634;-77
2022/06/20 12:26:14;;;;;;;5.97;4.13;;;;;;;32.33;34.17;98383.09;6974346;28;20798;-78
2022/06/20 12:29:36;;;;;;;9.20;4.27;;;;;;;31.65;35.39;98370.28;6976469;28;20201;-77
2022/06/20 12:32:58;;;;;;;7.53;4.30;;;;;;;32.35;35.05;98380.75;6978940;28;20236;-78
2022/06/20 12:36:28;;;;;;;8.07;4.10;;;;;;;32.26;34.95;98380.09;6975175;28;20217;-78
2022/06/20 12:39:57;;;;;;;6.90;4.00;;;;;;;31.01;36.60;98390.88;6978118;28;20217;-78
2022/06/20 12:43:22;;;;;;;6.90;4.50;;;;;;;31.20;36.63;98399.50;6977576;28;20693;-78
2022/06/20 12:46:58;;;;;;;11.10;4.30;;;;;;;30.38;37.87;98405.34;6976089;28;20313;-78
2022/06/20 12:50:23;;;;;;;6.43;3.80;;;;;;;31.32;37.29;98417.00;6974707;28;20663;-77
2022/06/20 12:54:03;;;;;;;8.10;4.07;;;;;;;31.88;36.23;98406.81;6975036;28;20214;-78
2022/06/20 12:57:43;;;;;;;9.77;4.53;;;;;;;31.09;36.99;98412.22;6974152;28;20232;-78
2022/06/20 13:01:08;;;;;;;6.43;4.50;;;;;;;31.03;37.12;98421.97;6974429;28;20238;-77
2022/06/20 13:04:46;;;;;;;6.70;4.20;;;;;;;30.46;38.30;98430.31;6975062;28;20201;-77
2022/06/20 13:08:39;;;;;;;8.03;4.47;;;;;;;30.73;38.06;98428.91;6950173;28;20201;-78
2022/06/20 13:12:11;;;;;;;11.90;4.37;;;;;;;31.25;37.08;98441.06;6926610;28;20684;-79
2022/06/20 13:15:41;;;;;;;11.03;4.67;;;;;;;30.50;38.32;98441.56;6954799;28;20269;-78
2022/06/20 13:19:17;;;;;;;8.97;4.50;;;;;;;30.90;37.61;98437.84;6977869;28;20213;-77
2022/06/20 13:22:50;;;;;;;9.33;3.87;;;;;;;30.93;37.57;98453.88;6978882;28;20261;-77
2022/06/20 13:26:18;;;;;;;8.60;4.20;;;;;;;30.31;38.12;98444.84;6980602;28;20192;-79
2022/06/20 13:29:46;;;;;;;8.63;4.17;;;;;;;30.08;38.63;98454.66;6979331;28;20216;-79
2022/06/20 13:33:17;;;;;;;9.20;4.20;;;;;;;29.91;38.45;98442.88;6979217;28;20577;-78
2022/06/20 13:36:44;;;;;;;6.67;3.70;;;;;;;29.24;40.27;98425.50;6979220;28;20224;-78
2022/06/20 13:40:17;;;;;;;11.17;4.20;;;;;;;29.23;40.07;98427.47;6998726;28;20227;-78
2022/06/20 13:43:47;;;;;;;6.70;3.97;;;;;;;29.14;40.28;98421.13;6979991;28;20232;-80
2022/06/20 13:47:19;;;;;;;6.00;3.33;;;;;;;28.60;41.78;98433.06;6977660;28;20194;-77
2022/06/20 13:50:46;;;;;;;6.00;3.50;;;;;;;28.71;42.04;98425.22;6976254;28;20336;-78
2022/06/20 13:54:18;;;;;;;6.37;3.47;;;;;;;29.37;40.07;98453.03;6951067;28;20226;-77
2022/06/20 13:57:45;;;;;;;7.77;2.97;;;;;;;28.83;42.03;98445.56;6950838;28;20564;-78
2022/06/20 14:01:09;;;;;;;7.80;3.57;;;;;;;28.44;43.16;98456.97;6950947;28;20242;-78
2022/06/20 14:04:33;;;;;;;8.17;3.50;;;;;;;29.00;41.71;98459.41;6950329;28;20225;-77
2022/06/20 14:08:04;;;;;;;4.80;3.20;;;;;;;28.90;41.44;98451.41;6950427;28;20213;-78
2022/06/20 14:11:32;;;;;;;7.87;3.63;;;;;;;28.09;42.77;98460.03;6949613;28;20247;-77
2022/06/20 14:14:56;;;;;;;4.23;3.00;;;;;;;28.30;43.08;98461.81;6975590;28;20212;-78
2022/06/20 14:18:22;;;;;;;7.30;3.40;;;;;;;27.50;44.89;98471.84;6976540;28;20294;-77
2022/06/20 14:21:45;;;;;;;6.67;3.80;;;;;;;27.70;44.33;98483.13;6975783;28;20237;-77
2022/06/20 14:25:34;;;;;;;6.30;3.40;;;;;;;28.15;43.90;98492.00;6977015;28;20218;-78
2022/06/20 14:28:59;;;;;;;7.30;3.37;;;;;;;27.90;44.81;98501.13;6976790;28;20676;-78
2022/06/20 14:32:24;;;;;;;8.00;3.57;;;;;;;28.19;44.55;98504.88;6976850;28;20221;-77
2022/06/20 14:35:55;;;;;;;5.53;3.10;;;;;;;28.67;43.47;98483.31;6978472;28;20217;-78
2022/06/20 14:39:20;;;;;;;5.73;3.53;;;;;;;29.21;42.21;98454.75;6978353;28;20204;-79
2022/06/20 14:42:45;;;;;;;4.57;3.13;;;;;;;29.60;41.70;98478.59;6977949;28;20291;-78
2022/06/20 14:46:14;;;;;;;5.70;4.10;;;;;;;29.25;41.66;98483.47;6978858;28;20231;-81
2022/06/20 14:49:42;;;;;;;8.03;3.93;;;;;;;29.44;41.38;98489.44;6977838;28;20198;-79
2022/06/20 14:53:06;;;;;;;6.40;3.43;;;;;;;28.95;42.54;98483.75;6977385;28;20227;-78
2022/06/20 14:56:31;;;;;;;8.80;3.40;;;;;;;28.97;42.39;98492.59;6977669;28;20209;-79
2022/06/20 15:00:00;;;;;;;7.33;3.40;;;;;;;29.31;41.53;98498.81;6977545;28;20370;-78
2022/06/20 15:03:29;;;;;;;4.73;3.20;;;;;;;29.18;42.01;98497.06;6976517;28;20261;-77
2022/06/20 15:07:04;;;;;;;7.60;3.40;;;;;;;29.47;41.52;98497.09;6975996;28;20261;-78
2022/06/20 15:10:37;;;;;;;4.63;3.07;;;;;;;28.96;41.34;98483.44;6975746;28;20546;-76
2022/06/20 15:14:01;;;;;;;6.00;3.43;;;;;;;29.13;42.12;98488.13;6976393;28;20205;-76
2022/06/20 15:17:27;;;;;;;5.73;3.40;;;;;;;28.74;42.38;98478.09;6975347;28;20201;-78
2022/06/20 15:20:57;;;;;;;5.83;3.70;;;;;;;28.46;42.62;98456.59;6975263;28;20232;-76
2022/06/20 15:24:36;;;;;;;4.13;3.20;;;;;;;27.79;44.11;98483.97;6974389;28;20216;-76
2022/06/20 15:28:11;;;;;;;6.57;3.40;;;;;;;29.05;42.06;98464.78;6975926;28;20527;-77
2022/06/20 15:31:35;;;;;;;5.23;3.37;;;;;;;28.65;41.67;98460.66;6974894;28;20229;-77
2022/06/20 15:35:13;;;;;;;4.70;3.60;;;;;;;28.57;42.67;98471.75;6968524;28;20205;-77
2022/06/20 15:38:57;;;;;;;6.50;3.33;;;;;;;28.98;42.05;98452.56;6975705;28;20227;-78
2022/06/20 15:42:22;;;;;;;7.13;3.50;;;;;;;28.68;41.90;98462.78;6966541;28;20239;-78
2022/06/20 15:45:48;;;;;;;4.17;2.80;;;;;;;29.10;41.64;98456.28;6955361;28;20200;-78
2022/06/20 15:49:17;;;;;;;6.20;3.03;;;;;;;28.62;41.56;98454.94;6975782;28;20208;-77
2022/06/20 15:52:53;;;;;;;3.73;2.90;;;;;;;28.17;43.01;98470.31;6978461;28;20274;-77
2022/06/20 15:56:20;;;;;;;4.83;3.30;;;;;;;28.31;42.99;98463.44;6974067;28;20240;-77
2022/06/20 15:59:54;;;;;;;5.53;3.30;;;;;;;28.91;41.71;98457.78;6977894;28;20190;-77
2022/06/20 16:03:39;;;;;;;8.90;3.43;;;;;;;28.81;41.63;98456.19;6979592;28;20256;-76
2022/06/20 16:07:11;;;;;;;5.90;3.30;;;;;;;29.08;41.43;98464.09;6969277;28;20212;-77
2022/06/20 16:10:42;;;;;;;3.93;3.27;;;;;;;28.67;40.98;98475.00;6947319;28;20350;-77
2022/06/20 16:14:05;;;;;;;2.90;2.60;;;;;;;28.37;40.98;98475.22;6947664;28;21037;-77
2022/06/20 16:17:29;;;;;;;3.00;2.70;;;;;;;28.12;41.83;98479.63;6957975;28;20199;-77
2022/06/20 16:20:57;;;;;;;3.47;3.00;;;;;;;28.69;41.01;98475.50;6974973;28;20701;-76